臺北終端管制區 - 松西席

METAR RCSS 290700Z 31004KT 280V350 4000 VCTS SHRA FEW010 FEW012CB BKN020 BKN040 28/28 Q1000 BECMG NSW RMK TS W-NW MOV N A2954 RA AMT 20.0MM(M)=

站台狀態:Offline
最後更新:2021-07-29 15:00:01